Aviation Digital Data Service (ADDS)

Output produced by METARs form (1826 UTC 16 August 2018)
found at http://www.aviationweather.gov/adds/metars/
 
TAF SYCJ 161700Z 1618/1718 06006KT 6000 SHRA FEW015CB BKN016 
     BECMG 1623/1701 9999 SCT012 SCT090 
     BECMG 1705/1707 VRB02 0900 FG SCT001 SCT012
       
TAF SYKM 161100Z 1612/1623 07006KT 9999 BKN016 SCT038 
     BECMG 1617/1619 3000 SHRA FEW012CB OVC034 
       
TAF SYLT 161102Z 1612/1623 07012KT 9999 BKN022 SCT038